sensor_id;sensor_type;location;lat;lon;timestamp;temperature;humidity
25949;DHT22;13961;51.178;4.448;2022-09-09T00:04:25;16.00;99.90
25949;DHT22;13961;51.178;4.448;2022-09-09T00:07:12;16.00;99.90
25949;DHT22;13961;51.178;4.448;2022-09-09T00:12:48;16.00;99.90
25949;DHT22;13961;51.178;4.448;2022-09-09T00:15:29;15.90;99.90
25949;DHT22;13961;51.178;4.448;2022-09-09T00:18:02;15.80;99.90
25949;DHT22;13961;51.178;4.448;2022-09-09T00:23:27;15.80;99.90
25949;DHT22;13961;51.178;4.448;2022-09-09T00:26:09;15.80;99.90
25949;DHT22;13961;51.178;4.448;2022-09-09T00:31:40;15.60;99.90
25949;DHT22;13961;51.178;4.448;2022-09-09T00:34:18;15.70;99.90
25949;DHT22;13961;51.178;4.448;2022-09-09T00:36:45;15.70;99.90
25949;DHT22;13961;51.178;4.448;2022-09-09T00:42:15;15.70;99.90
25949;DHT22;13961;51.178;4.448;2022-09-09T00:47:53;15.80;99.90
25949;DHT22;13961;51.178;4.448;2022-09-09T00:55:45;15.80;99.90
25949;DHT22;13961;51.178;4.448;2022-09-09T00:58:14;15.70;99.90
25949;DHT22;13961;51.178;4.448;2022-09-09T01:03:37;15.80;99.90
25949;DHT22;13961;51.178;4.448;2022-09-09T01:06:36;15.80;99.90
25949;DHT22;13961;51.178;4.448;2022-09-09T01:17:07;15.90;99.90
25949;DHT22;13961;51.178;4.448;2022-09-09T01:25:19;15.80;99.90
25949;DHT22;13961;51.178;4.448;2022-09-09T01:27:49;15.90;99.90
25949;DHT22;13961;51.178;4.448;2022-09-09T01:30:17;15.90;99.90
25949;DHT22;13961;51.178;4.448;2022-09-09T01:32:46;15.80;99.90
25949;DHT22;13961;51.178;4.448;2022-09-09T01:37:49;15.80;99.90
25949;DHT22;13961;51.178;4.448;2022-09-09T01:40:15;15.80;99.90
25949;DHT22;13961;51.178;4.448;2022-09-09T01:42:41;15.60;99.90
25949;DHT22;13961;51.178;4.448;2022-09-09T01:45:07;15.70;99.90
25949;DHT22;13961;51.178;4.448;2022-09-09T01:47:34;15.70;99.90
25949;DHT22;13961;51.178;4.448;2022-09-09T01:50:01;15.90;99.90
25949;DHT22;13961;51.178;4.448;2022-09-09T01:52:29;15.60;99.90
25949;DHT22;13961;51.178;4.448;2022-09-09T01:54:55;15.60;99.90
25949;DHT22;13961;51.178;4.448;2022-09-09T01:57:46;15.60;99.90
25949;DHT22;13961;51.178;4.448;2022-09-09T02:00:15;15.60;99.90
25949;DHT22;13961;51.178;4.448;2022-09-09T02:03:21;15.60;99.90
25949;DHT22;13961;51.178;4.448;2022-09-09T02:06:14;15.50;99.90
25949;DHT22;13961;51.178;4.448;2022-09-09T02:08:50;15.60;99.90
25949;DHT22;13961;51.178;4.448;2022-09-09T02:11:19;15.60;99.90
25949;DHT22;13961;51.178;4.448;2022-09-09T02:13:48;15.50;99.90
25949;DHT22;13961;51.178;4.448;2022-09-09T02:16:22;15.50;99.90
25949;DHT22;13961;51.178;4.448;2022-09-09T02:21:18;15.60;99.90
25949;DHT22;13961;51.178;4.448;2022-09-09T02:23:44;15.60;99.90
25949;DHT22;13961;51.178;4.448;2022-09-09T02:26:12;15.60;99.90
25949;DHT22;13961;51.178;4.448;2022-09-09T02:28:46;15.70;99.90
25949;DHT22;13961;51.178;4.448;2022-09-09T02:31:13;15.60;99.90
25949;DHT22;13961;51.178;4.448;2022-09-09T02:33:45;15.60;99.90
25949;DHT22;13961;51.178;4.448;2022-09-09T02:36:13;15.50;99.90
25949;DHT22;13961;51.178;4.448;2022-09-09T02:38:46;15.50;99.90
25949;DHT22;13961;51.178;4.448;2022-09-09T02:41:20;15.60;99.90
25949;DHT22;13961;51.178;4.448;2022-09-09T02:43:48;15.50;99.90
25949;DHT22;13961;51.178;4.448;2022-09-09T02:52:14;15.30;99.90
25949;DHT22;13961;51.178;4.448;2022-09-09T02:54:44;15.40;99.90
25949;DHT22;13961;51.178;4.448;2022-09-09T02:59:39;15.40;99.90
25949;DHT22;13961;51.178;4.448;2022-09-09T03:02:05;15.40;99.90
25949;DHT22;13961;51.178;4.448;2022-09-09T03:04:31;15.40;99.90
25949;DHT22;13961;51.178;4.448;2022-09-09T03:06:58;15.20;99.90
25949;DHT22;13961;51.178;4.448;2022-09-09T03:09:24;15.10;99.90
25949;DHT22;13961;51.178;4.448;2022-09-09T03:11:51;15.40;99.90
25949;DHT22;13961;51.178;4.448;2022-09-09T03:14:17;15.30;99.90
25949;DHT22;13961;51.178;4.448;2022-09-09T03:16:46;15.20;99.90
25949;DHT22;13961;51.178;4.448;2022-09-09T03:19:12;15.20;99.90
25949;DHT22;13961;51.178;4.448;2022-09-09T03:21:38;15.10;99.90
25949;DHT22;13961;51.178;4.448;2022-09-09T03:24:04;15.30;99.90
25949;DHT22;13961;51.178;4.448;2022-09-09T03:26:30;15.20;99.90
25949;DHT22;13961;51.178;4.448;2022-09-09T03:28:57;15.20;99.90
25949;DHT22;13961;51.178;4.448;2022-09-09T03:31:22;15.20;99.90
25949;DHT22;13961;51.178;4.448;2022-09-09T03:33:48;15.30;99.90
25949;DHT22;13961;51.178;4.448;2022-09-09T03:36:14;15.20;99.90
25949;DHT22;13961;51.178;4.448;2022-09-09T03:38:40;15.20;99.90
25949;DHT22;13961;51.178;4.448;2022-09-09T03:41:06;15.20;99.90
25949;DHT22;13961;51.178;4.448;2022-09-09T03:43:33;15.20;99.90
25949;DHT22;13961;51.178;4.448;2022-09-09T03:45:59;15.30;99.90
25949;DHT22;13961;51.178;4.448;2022-09-09T03:48:26;15.30;99.90
25949;DHT22;13961;51.178;4.448;2022-09-09T03:50:54;15.30;99.90
25949;DHT22;13961;51.178;4.448;2022-09-09T03:53:22;15.20;99.90
25949;DHT22;13961;51.178;4.448;2022-09-09T03:55:51;15.20;99.90
25949;DHT22;13961;51.178;4.448;2022-09-09T03:58:20;15.30;99.90
25949;DHT22;13961;51.178;4.448;2022-09-09T04:00:58;15.30;99.90
25949;DHT22;13961;51.178;4.448;2022-09-09T04:03:24;15.30;99.90
25949;DHT22;13961;51.178;4.448;2022-09-09T04:05:54;15.30;99.90
25949;DHT22;13961;51.178;4.448;2022-09-09T04:08:21;15.30;99.90
25949;DHT22;13961;51.178;4.448;2022-09-09T04:10:51;15.30;99.90
25949;DHT22;13961;51.178;4.448;2022-09-09T04:13:17;15.30;99.90
25949;DHT22;13961;51.178;4.448;2022-09-09T04:15:44;15.40;99.90
25949;DHT22;13961;51.178;4.448;2022-09-09T04:18:15;15.20;99.90
25949;DHT22;13961;51.178;4.448;2022-09-09T04:20:40;15.20;99.90
25949;DHT22;13961;51.178;4.448;2022-09-09T04:23:08;15.40;99.90
25949;DHT22;13961;51.178;4.448;2022-09-09T04:25:34;15.40;99.90
25949;DHT22;13961;51.178;4.448;2022-09-09T04:27:59;15.40;99.90
25949;DHT22;13961;51.178;4.448;2022-09-09T04:30:25;15.40;99.90
25949;DHT22;13961;51.178;4.448;2022-09-09T04:32:52;15.50;99.90
25949;DHT22;13961;51.178;4.448;2022-09-09T04:35:18;15.50;99.90
25949;DHT22;13961;51.178;4.448;2022-09-09T04:37:45;15.50;99.90
25949;DHT22;13961;51.178;4.448;2022-09-09T04:40:12;15.50;99.90
25949;DHT22;13961;51.178;4.448;2022-09-09T04:42:38;15.40;99.90
25949;DHT22;13961;51.178;4.448;2022-09-09T04:45:05;15.30;99.90
25949;DHT22;13961;51.178;4.448;2022-09-09T04:47:32;15.30;99.90
25949;DHT22;13961;51.178;4.448;2022-09-09T04:50:00;15.30;99.90
25949;DHT22;13961;51.178;4.448;2022-09-09T04:52:26;15.40;99.90
25949;DHT22;13961;51.178;4.448;2022-09-09T04:54:51;15.40;99.90
25949;DHT22;13961;51.178;4.448;2022-09-09T04:57:19;15.30;99.90
25949;DHT22;13961;51.178;4.448;2022-09-09T04:59:45;15.20;99.90
25949;DHT22;13961;51.178;4.448;2022-09-09T05:02:11;15.40;99.90
25949;DHT22;13961;51.178;4.448;2022-09-09T05:04:37;15.20;99.90
25949;DHT22;13961;51.178;4.448;2022-09-09T05:07:03;15.40;99.90
25949;DHT22;13961;51.178;4.448;2022-09-09T05:09:28;15.20;99.90
25949;DHT22;13961;51.178;4.448;2022-09-09T05:11:54;15.10;99.90
25949;DHT22;13961;51.178;4.448;2022-09-09T05:14:21;15.30;99.90
25949;DHT22;13961;51.178;4.448;2022-09-09T05:16:47;15.50;99.90
25949;DHT22;13961;51.178;4.448;2022-09-09T05:19:13;15.40;99.90
25949;DHT22;13961;51.178;4.448;2022-09-09T05:21:38;15.30;99.90
25949;DHT22;13961;51.178;4.448;2022-09-09T05:24:04;15.30;99.90
25949;DHT22;13961;51.178;4.448;2022-09-09T05:26:29;15.30;99.90
25949;DHT22;13961;51.178;4.448;2022-09-09T05:28:55;15.40;99.90
25949;DHT22;13961;51.178;4.448;2022-09-09T05:31:21;15.50;99.90
25949;DHT22;13961;51.178;4.448;2022-09-09T05:33:48;15.60;99.90
25949;DHT22;13961;51.178;4.448;2022-09-09T05:36:19;15.60;99.90
25949;DHT22;13961;51.178;4.448;2022-09-09T05:38:46;15.60;99.90
25949;DHT22;13961;51.178;4.448;2022-09-09T05:41:13;15.60;99.90
25949;DHT22;13961;51.178;4.448;2022-09-09T05:43:41;15.60;99.90
25949;DHT22;13961;51.178;4.448;2022-09-09T05:46:12;15.60;99.90
25949;DHT22;13961;51.178;4.448;2022-09-09T05:48:43;15.80;99.90
25949;DHT22;13961;51.178;4.448;2022-09-09T05:51:14;15.80;99.90
25949;DHT22;13961;51.178;4.448;2022-09-09T05:53:41;15.90;99.90
25949;DHT22;13961;51.178;4.448;2022-09-09T05:56:12;16.10;99.90
25949;DHT22;13961;51.178;4.448;2022-09-09T05:58:40;16.00;99.90
25949;DHT22;13961;51.178;4.448;2022-09-09T06:01:11;16.10;99.90
25949;DHT22;13961;51.178;4.448;2022-09-09T06:03:39;16.00;99.90
25949;DHT22;13961;51.178;4.448;2022-09-09T06:06:07;15.90;99.90
25949;DHT22;13961;51.178;4.448;2022-09-09T06:08:34;15.70;99.90
25949;DHT22;13961;51.178;4.448;2022-09-09T06:11:15;15.70;99.90
25949;DHT22;13961;51.178;4.448;2022-09-09T06:13:41;15.70;99.90
25949;DHT22;13961;51.178;4.448;2022-09-09T06:16:14;15.70;99.90
25949;DHT22;13961;51.178;4.448;2022-09-09T06:18:40;15.80;99.90
25949;DHT22;13961;51.178;4.448;2022-09-09T06:21:09;16.00;99.90
25949;DHT22;13961;51.178;4.448;2022-09-09T06:23:39;16.00;99.90
25949;DHT22;13961;51.178;4.448;2022-09-09T06:26:10;16.20;99.90
25949;DHT22;13961;51.178;4.448;2022-09-09T06:28:36;16.30;99.90
25949;DHT22;13961;51.178;4.448;2022-09-09T06:31:04;16.60;99.90
25949;DHT22;13961;51.178;4.448;2022-09-09T06:33:32;16.50;99.90
25949;DHT22;13961;51.178;4.448;2022-09-09T06:35:59;16.60;99.90
25949;DHT22;13961;51.178;4.448;2022-09-09T06:38:26;16.80;99.90
25949;DHT22;13961;51.178;4.448;2022-09-09T06:40:53;16.90;99.90
25949;DHT22;13961;51.178;4.448;2022-09-09T06:43:20;17.20;99.90
25949;DHT22;13961;51.178;4.448;2022-09-09T06:45:53;17.70;99.90
25949;DHT22;13961;51.178;4.448;2022-09-09T06:48:19;17.70;99.90
25949;DHT22;13961;51.178;4.448;2022-09-09T06:50:45;17.50;99.90
25949;DHT22;13961;51.178;4.448;2022-09-09T06:53:11;17.30;99.90
25949;DHT22;13961;51.178;4.448;2022-09-09T06:55:37;17.10;99.90
25949;DHT22;13961;51.178;4.448;2022-09-09T06:58:07;16.80;99.90
25949;DHT22;13961;51.178;4.448;2022-09-09T07:00:32;16.70;99.90
25949;DHT22;13961;51.178;4.448;2022-09-09T07:02:58;16.70;99.90
25949;DHT22;13961;51.178;4.448;2022-09-09T07:05:24;16.60;99.90
25949;DHT22;13961;51.178;4.448;2022-09-09T07:07:51;16.60;99.90
25949;DHT22;13961;51.178;4.448;2022-09-09T07:10:17;16.90;99.90
25949;DHT22;13961;51.178;4.448;2022-09-09T07:12:42;16.80;99.90
25949;DHT22;13961;51.178;4.448;2022-09-09T07:15:08;16.80;99.90
25949;DHT22;13961;51.178;4.448;2022-09-09T07:17:35;16.80;99.90
25949;DHT22;13961;51.178;4.448;2022-09-09T07:20:01;16.80;99.90
25949;DHT22;13961;51.178;4.448;2022-09-09T07:22:27;16.90;99.90
25949;DHT22;13961;51.178;4.448;2022-09-09T07:24:54;16.90;99.90
25949;DHT22;13961;51.178;4.448;2022-09-09T07:27:19;17.00;99.90
25949;DHT22;13961;51.178;4.448;2022-09-09T07:29:45;17.20;99.90
25949;DHT22;13961;51.178;4.448;2022-09-09T07:32:11;17.30;99.90
25949;DHT22;13961;51.178;4.448;2022-09-09T07:34:36;17.20;99.90
25949;DHT22;13961;51.178;4.448;2022-09-09T07:37:02;17.20;99.90
25949;DHT22;13961;51.178;4.448;2022-09-09T07:39:28;17.20;99.90
25949;DHT22;13961;51.178;4.448;2022-09-09T07:41:54;17.20;99.90
25949;DHT22;13961;51.178;4.448;2022-09-09T07:44:22;17.20;99.90
25949;DHT22;13961;51.178;4.448;2022-09-09T07:46:48;17.30;99.90
25949;DHT22;13961;51.178;4.448;2022-09-09T07:49:14;17.30;99.90
25949;DHT22;13961;51.178;4.448;2022-09-09T07:51:43;17.30;99.90
25949;DHT22;13961;51.178;4.448;2022-09-09T07:54:11;17.50;99.90
25949;DHT22;13961;51.178;4.448;2022-09-09T07:56:38;17.30;99.90
25949;DHT22;13961;51.178;4.448;2022-09-09T07:59:04;17.30;99.90
25949;DHT22;13961;51.178;4.448;2022-09-09T08:01:37;17.20;99.90
25949;DHT22;13961;51.178;4.448;2022-09-09T08:04:07;17.20;99.90
25949;DHT22;13961;51.178;4.448;2022-09-09T08:06:38;17.30;99.90
25949;DHT22;13961;51.178;4.448;2022-09-09T08:09:06;17.30;99.90
25949;DHT22;13961;51.178;4.448;2022-09-09T08:11:32;17.30;99.90
25949;DHT22;13961;51.178;4.448;2022-09-09T08:13:59;17.50;99.90
25949;DHT22;13961;51.178;4.448;2022-09-09T08:16:34;17.50;99.90
25949;DHT22;13961;51.178;4.448;2022-09-09T08:19:02;17.60;99.90
25949;DHT22;13961;51.178;4.448;2022-09-09T08:21:30;17.60;99.90
25949;DHT22;13961;51.178;4.448;2022-09-09T08:23:59;17.70;99.90
25949;DHT22;13961;51.178;4.448;2022-09-09T08:26:26;17.60;99.90
25949;DHT22;13961;51.178;4.448;2022-09-09T08:28:54;17.40;99.90
25949;DHT22;13961;51.178;4.448;2022-09-09T08:31:25;17.40;99.90
25949;DHT22;13961;51.178;4.448;2022-09-09T08:33:53;17.40;99.90
25949;DHT22;13961;51.178;4.448;2022-09-09T08:36:21;17.50;99.90
25949;DHT22;13961;51.178;4.448;2022-09-09T08:38:52;17.60;99.90
25949;DHT22;13961;51.178;4.448;2022-09-09T08:52:51;17.90;99.90
25949;DHT22;13961;51.178;4.448;2022-09-09T08:58:22;18.00;99.90
25949;DHT22;13961;51.178;4.448;2022-09-09T09:07:00;17.80;99.90
25949;DHT22;13961;51.178;4.448;2022-09-09T09:12:22;17.60;99.90
25949;DHT22;13961;51.178;4.448;2022-09-09T09:14:49;17.60;99.90
25949;DHT22;13961;51.178;4.448;2022-09-09T09:17:18;17.60;99.90
25949;DHT22;13961;51.178;4.448;2022-09-09T09:19:46;17.60;99.90
25949;DHT22;13961;51.178;4.448;2022-09-09T09:22:16;17.60;99.90
25949;DHT22;13961;51.178;4.448;2022-09-09T09:25:09;17.40;99.90
25949;DHT22;13961;51.178;4.448;2022-09-09T09:27:59;17.40;99.90
25949;DHT22;13961;51.178;4.448;2022-09-09T09:30:31;17.50;99.90
25949;DHT22;13961;51.178;4.448;2022-09-09T09:35:45;17.30;99.90
25949;DHT22;13961;51.178;4.448;2022-09-09T09:38:20;17.20;99.90
25949;DHT22;13961;51.178;4.448;2022-09-09T09:40:55;17.30;99.90
25949;DHT22;13961;51.178;4.448;2022-09-09T09:43:34;17.10;99.90
25949;DHT22;13961;51.178;4.448;2022-09-09T09:46:02;17.10;99.90
25949;DHT22;13961;51.178;4.448;2022-09-09T09:48:29;17.20;99.90
25949;DHT22;13961;51.178;4.448;2022-09-09T09:51:06;17.30;99.90
25949;DHT22;13961;51.178;4.448;2022-09-09T09:53:35;17.30;99.90
25949;DHT22;13961;51.178;4.448;2022-09-09T09:56:10;17.20;99.90
25949;DHT22;13961;51.178;4.448;2022-09-09T09:58:50;17.30;99.90
25949;DHT22;13961;51.178;4.448;2022-09-09T10:01:26;17.50;99.90
25949;DHT22;13961;51.178;4.448;2022-09-09T10:04:18;17.50;99.90
25949;DHT22;13961;51.178;4.448;2022-09-09T10:06:46;17.50;99.90
25949;DHT22;13961;51.178;4.448;2022-09-09T10:09:38;17.30;99.90
25949;DHT22;13961;51.178;4.448;2022-09-09T10:12:13;17.40;99.90
25949;DHT22;13961;51.178;4.448;2022-09-09T10:20:44;17.30;99.90
25949;DHT22;13961;51.178;4.448;2022-09-09T10:26:12;17.80;99.90
25949;DHT22;13961;51.178;4.448;2022-09-09T10:29:00;18.00;99.90
25949;DHT22;13961;51.178;4.448;2022-09-09T10:36:44;18.20;99.90
25949;DHT22;13961;51.178;4.448;2022-09-09T10:39:39;18.10;99.90
25949;DHT22;13961;51.178;4.448;2022-09-09T10:42:14;18.10;99.90
25949;DHT22;13961;51.178;4.448;2022-09-09T10:45:06;18.40;99.90
25949;DHT22;13961;51.178;4.448;2022-09-09T10:53:15;18.60;99.90
25949;DHT22;13961;51.178;4.448;2022-09-09T10:55:49;18.40;99.90
25949;DHT22;13961;51.178;4.448;2022-09-09T10:58:44;18.50;99.90
25949;DHT22;13961;51.178;4.448;2022-09-09T11:01:25;18.70;99.90
25949;DHT22;13961;51.178;4.448;2022-09-09T11:04:00;18.70;99.90
25949;DHT22;13961;51.178;4.448;2022-09-09T11:06:41;18.50;99.90
25949;DHT22;13961;51.178;4.448;2022-09-09T11:09:14;18.70;99.90
25949;DHT22;13961;51.178;4.448;2022-09-09T11:14:22;18.60;99.90
25949;DHT22;13961;51.178;4.448;2022-09-09T11:17:02;18.80;99.90
25949;DHT22;13961;51.178;4.448;2022-09-09T11:19:42;19.00;99.90
25949;DHT22;13961;51.178;4.448;2022-09-09T11:25:26;19.80;99.90
25949;DHT22;13961;51.178;4.448;2022-09-09T11:38:47;20.60;99.90
25949;DHT22;13961;51.178;4.448;2022-09-09T11:41:14;20.50;99.90
25949;DHT22;13961;51.178;4.448;2022-09-09T11:43:45;20.40;99.90
25949;DHT22;13961;51.178;4.448;2022-09-09T11:46:14;20.30;99.90
25949;DHT22;13961;51.178;4.448;2022-09-09T11:48:45;20.20;99.90
25949;DHT22;13961;51.178;4.448;2022-09-09T11:51:12;20.50;99.90
25949;DHT22;13961;51.178;4.448;2022-09-09T11:53:55;20.50;99.90
25949;DHT22;13961;51.178;4.448;2022-09-09T11:56:42;20.70;99.90
25949;DHT22;13961;51.178;4.448;2022-09-09T11:59:24;20.60;99.90
25949;DHT22;13961;51.178;4.448;2022-09-09T12:02:23;20.50;99.90
25949;DHT22;13961;51.178;4.448;2022-09-09T12:05:02;20.30;99.90
25949;DHT22;13961;51.178;4.448;2022-09-09T12:07:51;20.60;99.90
25949;DHT22;13961;51.178;4.448;2022-09-09T12:10:29;20.80;99.90
25949;DHT22;13961;51.178;4.448;2022-09-09T12:13:17;20.50;99.90
25949;DHT22;13961;51.178;4.448;2022-09-09T12:18:26;20.80;99.90
25949;DHT22;13961;51.178;4.448;2022-09-09T12:24:08;20.80;99.90
25949;DHT22;13961;51.178;4.448;2022-09-09T12:26:43;20.80;99.90
25949;DHT22;13961;51.178;4.448;2022-09-09T12:37:02;21.20;99.90
25949;DHT22;13961;51.178;4.448;2022-09-09T12:39:38;20.90;99.90
25949;DHT22;13961;51.178;4.448;2022-09-09T12:42:16;20.80;99.90
25949;DHT22;13961;51.178;4.448;2022-09-09T12:44:54;20.90;99.90
25949;DHT22;13961;51.178;4.448;2022-09-09T12:47:23;21.00;99.90
25949;DHT22;13961;51.178;4.448;2022-09-09T12:49:50;20.80;99.90
25949;DHT22;13961;51.178;4.448;2022-09-09T12:52:26;20.60;99.90
25949;DHT22;13961;51.178;4.448;2022-09-09T12:54:55;20.50;99.90
25949;DHT22;13961;51.178;4.448;2022-09-09T12:57:23;20.60;99.90
25949;DHT22;13961;51.178;4.448;2022-09-09T12:59:50;20.90;99.90
25949;DHT22;13961;51.178;4.448;2022-09-09T13:02:20;21.10;99.90
25949;DHT22;13961;51.178;4.448;2022-09-09T13:04:47;21.30;99.90
25949;DHT22;13961;51.178;4.448;2022-09-09T13:07:13;21.30;99.90
25949;DHT22;13961;51.178;4.448;2022-09-09T13:09:42;21.40;99.90
25949;DHT22;13961;51.178;4.448;2022-09-09T13:12:14;21.10;99.90
25949;DHT22;13961;51.178;4.448;2022-09-09T13:14:43;21.30;99.90
25949;DHT22;13961;51.178;4.448;2022-09-09T13:17:19;21.40;99.90
25949;DHT22;13961;51.178;4.448;2022-09-09T13:19:46;21.50;99.90
25949;DHT22;13961;51.178;4.448;2022-09-09T13:25:13;21.40;99.90
25949;DHT22;13961;51.178;4.448;2022-09-09T13:27:55;21.00;99.90
25949;DHT22;13961;51.178;4.448;2022-09-09T13:33:22;21.30;99.90
25949;DHT22;13961;51.178;4.448;2022-09-09T13:35:55;21.70;99.90
25949;DHT22;13961;51.178;4.448;2022-09-09T13:38:21;22.00;99.90
25949;DHT22;13961;51.178;4.448;2022-09-09T13:41:07;22.40;99.90
25949;DHT22;13961;51.178;4.448;2022-09-09T13:43:41;22.30;99.90
25949;DHT22;13961;51.178;4.448;2022-09-09T13:46:36;22.60;99.90
25949;DHT22;13961;51.178;4.448;2022-09-09T13:54:06;21.70;99.90
25949;DHT22;13961;51.178;4.448;2022-09-09T13:56:34;21.80;99.90
25949;DHT22;13961;51.178;4.448;2022-09-09T13:59:00;21.40;99.90
25949;DHT22;13961;51.178;4.448;2022-09-09T14:01:26;21.50;99.90
25949;DHT22;13961;51.178;4.448;2022-09-09T14:03:53;21.40;99.90
25949;DHT22;13961;51.178;4.448;2022-09-09T14:06:19;21.30;99.90
25949;DHT22;13961;51.178;4.448;2022-09-09T14:08:44;21.20;99.90
25949;DHT22;13961;51.178;4.448;2022-09-09T14:11:12;21.20;99.90
25949;DHT22;13961;51.178;4.448;2022-09-09T14:13:38;21.20;99.90
25949;DHT22;13961;51.178;4.448;2022-09-09T14:16:04;21.30;99.90
25949;DHT22;13961;51.178;4.448;2022-09-09T14:18:30;21.40;99.90
25949;DHT22;13961;51.178;4.448;2022-09-09T14:20:56;21.40;99.90
25949;DHT22;13961;51.178;4.448;2022-09-09T14:23:22;21.50;99.90
25949;DHT22;13961;51.178;4.448;2022-09-09T14:25:48;21.50;99.90
25949;DHT22;13961;51.178;4.448;2022-09-09T14:28:14;21.40;99.90
25949;DHT22;13961;51.178;4.448;2022-09-09T14:30:41;21.60;99.90
25949;DHT22;13961;51.178;4.448;2022-09-09T14:33:12;21.90;99.90
25949;DHT22;13961;51.178;4.448;2022-09-09T14:35:37;21.70;99.90
25949;DHT22;13961;51.178;4.448;2022-09-09T14:38:04;21.40;99.90
25949;DHT22;13961;51.178;4.448;2022-09-09T14:40:30;21.20;99.90
25949;DHT22;13961;51.178;4.448;2022-09-09T14:42:56;21.30;99.90
25949;DHT22;13961;51.178;4.448;2022-09-09T14:45:25;21.10;99.90
25949;DHT22;13961;51.178;4.448;2022-09-09T14:47:52;20.90;99.90
25949;DHT22;13961;51.178;4.448;2022-09-09T14:50:19;21.10;99.90
25949;DHT22;13961;51.178;4.448;2022-09-09T14:52:45;21.50;99.90
25949;DHT22;13961;51.178;4.448;2022-09-09T14:55:12;21.60;99.90
25949;DHT22;13961;51.178;4.448;2022-09-09T14:57:38;21.80;99.90
25949;DHT22;13961;51.178;4.448;2022-09-09T15:00:04;22.00;99.90
25949;DHT22;13961;51.178;4.448;2022-09-09T15:02:30;21.80;99.90
25949;DHT22;13961;51.178;4.448;2022-09-09T15:04:56;21.70;99.90
25949;DHT22;13961;51.178;4.448;2022-09-09T15:07:25;21.60;99.90
25949;DHT22;13961;51.178;4.448;2022-09-09T15:09:52;21.30;99.90
25949;DHT22;13961;51.178;4.448;2022-09-09T15:12:18;21.00;99.90
25949;DHT22;13961;51.178;4.448;2022-09-09T15:14:45;20.80;99.90
25949;DHT22;13961;51.178;4.448;2022-09-09T15:17:10;20.50;99.90
25949;DHT22;13961;51.178;4.448;2022-09-09T15:19:36;20.10;99.90
25949;DHT22;13961;51.178;4.448;2022-09-09T15:22:03;20.20;99.90
25949;DHT22;13961;51.178;4.448;2022-09-09T15:24:31;20.00;99.90
25949;DHT22;13961;51.178;4.448;2022-09-09T15:26:57;20.00;99.90
25949;DHT22;13961;51.178;4.448;2022-09-09T15:29:23;20.30;99.90
25949;DHT22;13961;51.178;4.448;2022-09-09T15:31:48;20.30;99.90
25949;DHT22;13961;51.178;4.448;2022-09-09T15:34:14;20.30;99.90
25949;DHT22;13961;51.178;4.448;2022-09-09T15:36:44;20.60;99.90
25949;DHT22;13961;51.178;4.448;2022-09-09T15:39:17;20.90;99.90
25949;DHT22;13961;51.178;4.448;2022-09-09T15:41:45;20.60;99.90
25949;DHT22;13961;51.178;4.448;2022-09-09T15:44:11;20.50;99.90
25949;DHT22;13961;51.178;4.448;2022-09-09T15:46:50;20.50;99.90
25949;DHT22;13961;51.178;4.448;2022-09-09T15:49:22;20.70;99.90
25949;DHT22;13961;51.178;4.448;2022-09-09T15:51:53;20.50;99.90
25949;DHT22;13961;51.178;4.448;2022-09-09T15:54:20;20.50;99.90
25949;DHT22;13961;51.178;4.448;2022-09-09T15:56:51;20.40;99.90
25949;DHT22;13961;51.178;4.448;2022-09-09T15:59:17;20.50;99.90
25949;DHT22;13961;51.178;4.448;2022-09-09T16:01:43;20.20;99.90
25949;DHT22;13961;51.178;4.448;2022-09-09T16:04:09;20.30;99.90
25949;DHT22;13961;51.178;4.448;2022-09-09T16:06:35;20.40;99.90
25949;DHT22;13961;51.178;4.448;2022-09-09T16:09:03;20.60;99.90
25949;DHT22;13961;51.178;4.448;2022-09-09T16:11:33;20.80;99.90
25949;DHT22;13961;51.178;4.448;2022-09-09T16:13:59;20.50;99.90
25949;DHT22;13961;51.178;4.448;2022-09-09T16:16:27;20.50;99.90
25949;DHT22;13961;51.178;4.448;2022-09-09T16:18:55;20.60;99.90
25949;DHT22;13961;51.178;4.448;2022-09-09T16:21:25;20.60;99.90
25949;DHT22;13961;51.178;4.448;2022-09-09T16:23:53;20.30;99.90
25949;DHT22;13961;51.178;4.448;2022-09-09T16:26:19;20.20;99.90
25949;DHT22;13961;51.178;4.448;2022-09-09T16:28:45;20.20;99.90
25949;DHT22;13961;51.178;4.448;2022-09-09T16:31:16;20.40;99.90
25949;DHT22;13961;51.178;4.448;2022-09-09T16:33:43;20.40;99.90
25949;DHT22;13961;51.178;4.448;2022-09-09T16:36:11;20.30;99.90
25949;DHT22;13961;51.178;4.448;2022-09-09T16:38:38;20.40;99.90
25949;DHT22;13961;51.178;4.448;2022-09-09T16:41:05;20.30;99.90
25949;DHT22;13961;51.178;4.448;2022-09-09T16:43:32;20.30;99.90
25949;DHT22;13961;51.178;4.448;2022-09-09T16:45:58;20.30;99.90
25949;DHT22;13961;51.178;4.448;2022-09-09T16:48:27;20.30;99.90
25949;DHT22;13961;51.178;4.448;2022-09-09T16:50:52;20.40;99.90
25949;DHT22;13961;51.178;4.448;2022-09-09T16:53:18;20.40;99.90
25949;DHT22;13961;51.178;4.448;2022-09-09T16:55:43;20.50;99.90
25949;DHT22;13961;51.178;4.448;2022-09-09T16:58:12;20.50;99.90
25949;DHT22;13961;51.178;4.448;2022-09-09T17:00:38;20.40;99.90
25949;DHT22;13961;51.178;4.448;2022-09-09T17:03:04;20.20;99.90
25949;DHT22;13961;51.178;4.448;2022-09-09T17:05:30;20.20;99.90
25949;DHT22;13961;51.178;4.448;2022-09-09T17:07:55;20.10;99.90
25949;DHT22;13961;51.178;4.448;2022-09-09T17:10:24;19.80;99.90
25949;DHT22;13961;51.178;4.448;2022-09-09T17:12:51;19.80;99.90
25949;DHT22;13961;51.178;4.448;2022-09-09T17:15:16;19.90;99.90
25949;DHT22;13961;51.178;4.448;2022-09-09T17:17:43;19.70;99.90
25949;DHT22;13961;51.178;4.448;2022-09-09T17:20:10;19.60;99.90
25949;DHT22;13961;51.178;4.448;2022-09-09T17:22:36;19.80;99.90
25949;DHT22;13961;51.178;4.448;2022-09-09T17:25:02;19.80;99.90
25949;DHT22;13961;51.178;4.448;2022-09-09T17:27:28;19.90;99.90
25949;DHT22;13961;51.178;4.448;2022-09-09T17:29:56;19.60;99.90
25949;DHT22;13961;51.178;4.448;2022-09-09T17:32:22;19.50;99.90
25949;DHT22;13961;51.178;4.448;2022-09-09T17:34:48;19.60;99.90
25949;DHT22;13961;51.178;4.448;2022-09-09T17:37:14;19.70;99.90
25949;DHT22;13961;51.178;4.448;2022-09-09T17:39:39;19.80;99.90
25949;DHT22;13961;51.178;4.448;2022-09-09T17:42:05;19.80;99.90
25949;DHT22;13961;51.178;4.448;2022-09-09T17:44:32;19.80;99.90
25949;DHT22;13961;51.178;4.448;2022-09-09T17:46:58;19.90;99.90
25949;DHT22;13961;51.178;4.448;2022-09-09T17:49:24;19.70;99.90
25949;DHT22;13961;51.178;4.448;2022-09-09T17:51:50;19.80;99.90
25949;DHT22;13961;51.178;4.448;2022-09-09T17:54:18;19.70;99.90
25949;DHT22;13961;51.178;4.448;2022-09-09T17:56:45;19.70;99.90
25949;DHT22;13961;51.178;4.448;2022-09-09T17:59:13;19.50;99.90
25949;DHT22;13961;51.178;4.448;2022-09-09T18:01:43;19.40;99.90
25949;DHT22;13961;51.178;4.448;2022-09-09T18:04:10;19.40;99.90
25949;DHT22;13961;51.178;4.448;2022-09-09T18:06:42;19.20;99.90